sensor_id;sensor_type;location;lat;lon;timestamp;P1;durP1;ratioP1;P2;durP2;ratioP2
12480;SDS011;6305;48.398;11.762;2024-01-11T00:00:49;159.97;;;51.23;;
12480;SDS011;6305;48.398;11.762;2024-01-11T00:03:16;157.37;;;50.83;;
12480;SDS011;6305;48.398;11.762;2024-01-11T00:05:43;163.57;;;51.03;;
12480;SDS011;6305;48.398;11.762;2024-01-11T00:08:11;147.73;;;48.97;;
12480;SDS011;6305;48.398;11.762;2024-01-11T00:10:38;157.77;;;51.53;;
12480;SDS011;6305;48.398;11.762;2024-01-11T00:13:07;150.83;;;50.83;;
12480;SDS011;6305;48.398;11.762;2024-01-11T00:15:34;139.40;;;48.43;;
12480;SDS011;6305;48.398;11.762;2024-01-11T00:18:01;137.97;;;49.23;;
12480;SDS011;6305;48.398;11.762;2024-01-11T00:20:28;166.63;;;50.17;;
12480;SDS011;6305;48.398;11.762;2024-01-11T00:22:56;146.80;;;48.70;;
12480;SDS011;6305;48.398;11.762;2024-01-11T00:25:23;135.40;;;46.10;;
12480;SDS011;6305;48.398;11.762;2024-01-11T00:27:50;141.83;;;48.27;;
12480;SDS011;6305;48.398;11.762;2024-01-11T00:30:19;143.13;;;47.93;;
12480;SDS011;6305;48.398;11.762;2024-01-11T00:32:49;144.60;;;48.13;;
12480;SDS011;6305;48.398;11.762;2024-01-11T00:35:16;150.33;;;47.03;;
12480;SDS011;6305;48.398;11.762;2024-01-11T00:37:44;131.70;;;46.43;;
12480;SDS011;6305;48.398;11.762;2024-01-11T00:40:11;133.60;;;46.67;;
12480;SDS011;6305;48.398;11.762;2024-01-11T00:42:38;131.57;;;45.80;;
12480;SDS011;6305;48.398;11.762;2024-01-11T00:45:06;131.37;;;44.67;;
12480;SDS011;6305;48.398;11.762;2024-01-11T00:47:35;127.90;;;46.97;;
12480;SDS011;6305;48.398;11.762;2024-01-11T00:50:02;125.03;;;48.43;;
12480;SDS011;6305;48.398;11.762;2024-01-11T00:52:29;117.37;;;45.73;;
12480;SDS011;6305;48.398;11.762;2024-01-11T00:54:56;137.13;;;47.00;;
12480;SDS011;6305;48.398;11.762;2024-01-11T00:57:23;123.83;;;44.10;;
12480;SDS011;6305;48.398;11.762;2024-01-11T00:59:51;131.90;;;46.57;;
12480;SDS011;6305;48.398;11.762;2024-01-11T01:02:19;133.53;;;48.17;;
12480;SDS011;6305;48.398;11.762;2024-01-11T01:04:48;127.77;;;45.27;;
12480;SDS011;6305;48.398;11.762;2024-01-11T01:07:15;134.67;;;47.53;;
12480;SDS011;6305;48.398;11.762;2024-01-11T01:09:42;124.60;;;46.83;;
12480;SDS011;6305;48.398;11.762;2024-01-11T01:12:10;144.13;;;47.17;;
12480;SDS011;6305;48.398;11.762;2024-01-11T01:14:37;123.67;;;47.40;;
12480;SDS011;6305;48.398;11.762;2024-01-11T01:17:04;114.27;;;43.87;;
12480;SDS011;6305;48.398;11.762;2024-01-11T01:19:31;121.57;;;46.40;;
12480;SDS011;6305;48.398;11.762;2024-01-11T01:22:00;127.07;;;47.17;;
12480;SDS011;6305;48.398;11.762;2024-01-11T01:24:27;131.63;;;47.17;;
12480;SDS011;6305;48.398;11.762;2024-01-11T01:26:54;132.70;;;47.97;;
12480;SDS011;6305;48.398;11.762;2024-01-11T01:29:22;138.57;;;45.90;;
12480;SDS011;6305;48.398;11.762;2024-01-11T01:31:49;131.57;;;46.67;;
12480;SDS011;6305;48.398;11.762;2024-01-11T01:34:17;134.40;;;46.90;;
12480;SDS011;6305;48.398;11.762;2024-01-11T01:36:45;140.70;;;48.27;;
12480;SDS011;6305;48.398;11.762;2024-01-11T01:39:13;128.37;;;44.93;;
12480;SDS011;6305;48.398;11.762;2024-01-11T01:41:41;136.13;;;47.00;;
12480;SDS011;6305;48.398;11.762;2024-01-11T01:44:08;130.37;;;45.70;;
12480;SDS011;6305;48.398;11.762;2024-01-11T01:46:35;129.17;;;47.07;;
12480;SDS011;6305;48.398;11.762;2024-01-11T01:49:02;133.97;;;45.90;;
12480;SDS011;6305;48.398;11.762;2024-01-11T01:51:30;127.70;;;44.67;;
12480;SDS011;6305;48.398;11.762;2024-01-11T01:53:58;128.67;;;47.90;;
12480;SDS011;6305;48.398;11.762;2024-01-11T01:56:27;141.80;;;48.00;;
12480;SDS011;6305;48.398;11.762;2024-01-11T01:58:55;134.43;;;46.83;;
12480;SDS011;6305;48.398;11.762;2024-01-11T02:01:22;123.23;;;45.27;;
12480;SDS011;6305;48.398;11.762;2024-01-11T02:03:50;136.47;;;46.07;;
12480;SDS011;6305;48.398;11.762;2024-01-11T02:06:17;130.33;;;46.67;;
12480;SDS011;6305;48.398;11.762;2024-01-11T02:08:46;126.93;;;45.80;;
12480;SDS011;6305;48.398;11.762;2024-01-11T02:11:15;126.33;;;47.67;;
12480;SDS011;6305;48.398;11.762;2024-01-11T02:13:44;123.63;;;47.53;;
12480;SDS011;6305;48.398;11.762;2024-01-11T02:16:11;128.57;;;49.13;;
12480;SDS011;6305;48.398;11.762;2024-01-11T02:18:40;128.37;;;45.50;;
12480;SDS011;6305;48.398;11.762;2024-01-11T02:21:08;122.67;;;45.63;;
12480;SDS011;6305;48.398;11.762;2024-01-11T02:23:40;127.00;;;46.00;;
12480;SDS011;6305;48.398;11.762;2024-01-11T02:26:12;123.93;;;47.77;;
12480;SDS011;6305;48.398;11.762;2024-01-11T02:28:42;132.20;;;49.20;;
12480;SDS011;6305;48.398;11.762;2024-01-11T02:31:10;127.13;;;47.70;;
12480;SDS011;6305;48.398;11.762;2024-01-11T02:33:38;127.03;;;46.53;;
12480;SDS011;6305;48.398;11.762;2024-01-11T02:36:06;125.80;;;46.67;;
12480;SDS011;6305;48.398;11.762;2024-01-11T02:38:33;125.17;;;48.20;;
12480;SDS011;6305;48.398;11.762;2024-01-11T02:41:01;121.83;;;46.37;;
12480;SDS011;6305;48.398;11.762;2024-01-11T02:43:30;119.23;;;44.83;;
12480;SDS011;6305;48.398;11.762;2024-01-11T02:45:57;120.53;;;47.47;;
12480;SDS011;6305;48.398;11.762;2024-01-11T02:48:27;117.07;;;47.30;;
12480;SDS011;6305;48.398;11.762;2024-01-11T02:50:55;128.30;;;46.47;;
12480;SDS011;6305;48.398;11.762;2024-01-11T02:53:23;127.93;;;48.20;;
12480;SDS011;6305;48.398;11.762;2024-01-11T02:55:51;124.30;;;47.63;;
12480;SDS011;6305;48.398;11.762;2024-01-11T02:58:18;116.47;;;45.63;;
12480;SDS011;6305;48.398;11.762;2024-01-11T03:00:46;132.33;;;47.83;;
12480;SDS011;6305;48.398;11.762;2024-01-11T03:03:14;125.50;;;47.77;;
12480;SDS011;6305;48.398;11.762;2024-01-11T03:05:41;116.70;;;47.47;;
12480;SDS011;6305;48.398;11.762;2024-01-11T03:08:08;127.77;;;47.97;;
12480;SDS011;6305;48.398;11.762;2024-01-11T03:10:36;134.43;;;47.53;;
12480;SDS011;6305;48.398;11.762;2024-01-11T03:13:05;127.73;;;47.60;;
12480;SDS011;6305;48.398;11.762;2024-01-11T03:15:32;120.87;;;45.77;;
12480;SDS011;6305;48.398;11.762;2024-01-11T03:18:01;115.60;;;45.00;;
12480;SDS011;6305;48.398;11.762;2024-01-11T03:20:28;120.60;;;45.47;;
12480;SDS011;6305;48.398;11.762;2024-01-11T03:22:55;115.73;;;44.97;;
12480;SDS011;6305;48.398;11.762;2024-01-11T03:25:22;125.40;;;46.07;;
12480;SDS011;6305;48.398;11.762;2024-01-11T03:27:50;125.93;;;48.27;;
12480;SDS011;6305;48.398;11.762;2024-01-11T03:30:17;134.40;;;48.87;;
12480;SDS011;6305;48.398;11.762;2024-01-11T03:32:44;120.60;;;48.37;;
12480;SDS011;6305;48.398;11.762;2024-01-11T03:35:12;127.13;;;48.97;;
12480;SDS011;6305;48.398;11.762;2024-01-11T03:37:40;119.03;;;48.03;;
12480;SDS011;6305;48.398;11.762;2024-01-11T03:40:07;119.70;;;48.53;;
12480;SDS011;6305;48.398;11.762;2024-01-11T03:42:34;123.77;;;47.87;;
12480;SDS011;6305;48.398;11.762;2024-01-11T03:45:01;126.67;;;47.03;;
12480;SDS011;6305;48.398;11.762;2024-01-11T03:47:29;120.90;;;48.87;;
12480;SDS011;6305;48.398;11.762;2024-01-11T03:49:56;119.47;;;49.37;;
12480;SDS011;6305;48.398;11.762;2024-01-11T03:52:25;122.37;;;48.17;;
12480;SDS011;6305;48.398;11.762;2024-01-11T03:54:52;124.07;;;48.90;;
12480;SDS011;6305;48.398;11.762;2024-01-11T03:57:20;124.40;;;48.50;;
12480;SDS011;6305;48.398;11.762;2024-01-11T03:59:47;135.03;;;51.60;;
12480;SDS011;6305;48.398;11.762;2024-01-11T04:02:14;129.37;;;50.20;;
12480;SDS011;6305;48.398;11.762;2024-01-11T04:04:41;125.43;;;49.13;;
12480;SDS011;6305;48.398;11.762;2024-01-11T04:07:09;132.87;;;49.27;;
12480;SDS011;6305;48.398;11.762;2024-01-11T04:09:38;128.77;;;48.50;;
12480;SDS011;6305;48.398;11.762;2024-01-11T04:12:05;129.03;;;48.97;;
12480;SDS011;6305;48.398;11.762;2024-01-11T04:14:33;129.00;;;49.03;;
12480;SDS011;6305;48.398;11.762;2024-01-11T04:17:05;132.77;;;49.10;;
12480;SDS011;6305;48.398;11.762;2024-01-11T04:19:32;132.83;;;47.90;;
12480;SDS011;6305;48.398;11.762;2024-01-11T04:21:59;122.20;;;46.50;;
12480;SDS011;6305;48.398;11.762;2024-01-11T04:24:26;120.77;;;48.00;;
12480;SDS011;6305;48.398;11.762;2024-01-11T04:26:55;128.13;;;47.43;;
12480;SDS011;6305;48.398;11.762;2024-01-11T04:29:22;135.37;;;48.63;;
12480;SDS011;6305;48.398;11.762;2024-01-11T04:31:50;118.00;;;46.17;;
12480;SDS011;6305;48.398;11.762;2024-01-11T04:34:17;122.13;;;46.23;;
12480;SDS011;6305;48.398;11.762;2024-01-11T04:36:44;129.63;;;49.20;;
12480;SDS011;6305;48.398;11.762;2024-01-11T04:39:11;126.83;;;49.43;;
12480;SDS011;6305;48.398;11.762;2024-01-11T04:41:39;135.97;;;49.00;;
12480;SDS011;6305;48.398;11.762;2024-01-11T04:44:07;120.50;;;46.30;;
12480;SDS011;6305;48.398;11.762;2024-01-11T04:46:34;124.83;;;47.83;;
12480;SDS011;6305;48.398;11.762;2024-01-11T04:49:01;123.10;;;47.87;;
12480;SDS011;6305;48.398;11.762;2024-01-11T04:51:28;127.33;;;50.73;;
12480;SDS011;6305;48.398;11.762;2024-01-11T04:53:56;140.77;;;53.97;;
12480;SDS011;6305;48.398;11.762;2024-01-11T04:56:23;120.73;;;47.93;;
12480;SDS011;6305;48.398;11.762;2024-01-11T04:58:50;125.77;;;47.73;;
12480;SDS011;6305;48.398;11.762;2024-01-11T05:01:19;120.73;;;49.60;;
12480;SDS011;6305;48.398;11.762;2024-01-11T05:03:47;121.97;;;50.47;;
12480;SDS011;6305;48.398;11.762;2024-01-11T05:06:15;125.13;;;51.80;;
12480;SDS011;6305;48.398;11.762;2024-01-11T05:08:43;125.03;;;50.20;;
12480;SDS011;6305;48.398;11.762;2024-01-11T05:11:15;129.03;;;51.80;;
12480;SDS011;6305;48.398;11.762;2024-01-11T05:13:43;126.97;;;52.10;;
12480;SDS011;6305;48.398;11.762;2024-01-11T05:16:20;137.67;;;53.67;;
12480;SDS011;6305;48.398;11.762;2024-01-11T05:18:48;133.47;;;53.10;;
12480;SDS011;6305;48.398;11.762;2024-01-11T05:21:16;125.87;;;52.80;;
12480;SDS011;6305;48.398;11.762;2024-01-11T05:23:44;132.53;;;53.43;;
12480;SDS011;6305;48.398;11.762;2024-01-11T05:26:12;132.93;;;54.80;;
12480;SDS011;6305;48.398;11.762;2024-01-11T05:28:40;127.20;;;52.70;;
12480;SDS011;6305;48.398;11.762;2024-01-11T05:31:08;127.57;;;53.00;;
12480;SDS011;6305;48.398;11.762;2024-01-11T05:33:38;133.30;;;55.37;;
12480;SDS011;6305;48.398;11.762;2024-01-11T05:36:05;137.13;;;58.13;;
12480;SDS011;6305;48.398;11.762;2024-01-11T05:38:33;130.30;;;54.27;;
12480;SDS011;6305;48.398;11.762;2024-01-11T05:41:00;124.20;;;51.60;;
12480;SDS011;6305;48.398;11.762;2024-01-11T05:43:27;128.07;;;54.17;;
12480;SDS011;6305;48.398;11.762;2024-01-11T05:45:54;127.10;;;53.73;;
12480;SDS011;6305;48.398;11.762;2024-01-11T05:48:21;127.73;;;52.97;;
12480;SDS011;6305;48.398;11.762;2024-01-11T05:50:51;127.93;;;53.33;;
12480;SDS011;6305;48.398;11.762;2024-01-11T05:53:18;132.73;;;54.93;;
12480;SDS011;6305;48.398;11.762;2024-01-11T05:55:46;130.70;;;53.63;;
12480;SDS011;6305;48.398;11.762;2024-01-11T05:58:13;130.80;;;53.73;;
12480;SDS011;6305;48.398;11.762;2024-01-11T06:00:40;131.40;;;54.90;;
12480;SDS011;6305;48.398;11.762;2024-01-11T06:03:08;131.20;;;53.87;;
12480;SDS011;6305;48.398;11.762;2024-01-11T06:05:35;130.73;;;52.90;;
12480;SDS011;6305;48.398;11.762;2024-01-11T06:08:05;148.07;;;59.17;;
12480;SDS011;6305;48.398;11.762;2024-01-11T06:10:32;129.87;;;54.47;;
12480;SDS011;6305;48.398;11.762;2024-01-11T06:12:59;126.57;;;51.77;;
12480;SDS011;6305;48.398;11.762;2024-01-11T06:15:25;125.43;;;51.77;;
12480;SDS011;6305;48.398;11.762;2024-01-11T06:17:53;120.93;;;51.50;;
12480;SDS011;6305;48.398;11.762;2024-01-11T06:20:20;113.27;;;50.40;;
12480;SDS011;6305;48.398;11.762;2024-01-11T06:22:47;121.37;;;52.60;;
12480;SDS011;6305;48.398;11.762;2024-01-11T06:25:15;125.20;;;52.17;;
12480;SDS011;6305;48.398;11.762;2024-01-11T06:27:43;132.57;;;54.80;;
12480;SDS011;6305;48.398;11.762;2024-01-11T06:30:11;135.17;;;54.97;;
12480;SDS011;6305;48.398;11.762;2024-01-11T06:32:39;124.73;;;52.13;;
12480;SDS011;6305;48.398;11.762;2024-01-11T06:35:06;129.70;;;55.23;;
12480;SDS011;6305;48.398;11.762;2024-01-11T06:37:33;131.27;;;53.93;;
12480;SDS011;6305;48.398;11.762;2024-01-11T06:40:01;123.90;;;52.67;;
12480;SDS011;6305;48.398;11.762;2024-01-11T06:42:30;124.97;;;53.17;;
12480;SDS011;6305;48.398;11.762;2024-01-11T06:44:58;127.13;;;54.47;;
12480;SDS011;6305;48.398;11.762;2024-01-11T06:47:25;126.30;;;55.00;;
12480;SDS011;6305;48.398;11.762;2024-01-11T06:49:52;136.30;;;57.10;;
12480;SDS011;6305;48.398;11.762;2024-01-11T06:52:19;126.10;;;54.97;;
12480;SDS011;6305;48.398;11.762;2024-01-11T06:54:46;134.67;;;55.87;;
12480;SDS011;6305;48.398;11.762;2024-01-11T06:57:14;128.20;;;54.37;;
12480;SDS011;6305;48.398;11.762;2024-01-11T06:59:42;126.80;;;55.20;;
12480;SDS011;6305;48.398;11.762;2024-01-11T07:02:11;138.60;;;59.33;;
12480;SDS011;6305;48.398;11.762;2024-01-11T07:04:42;135.17;;;55.63;;
12480;SDS011;6305;48.398;11.762;2024-01-11T07:07:10;137.00;;;55.67;;
12480;SDS011;6305;48.398;11.762;2024-01-11T07:09:38;195.53;;;91.47;;
12480;SDS011;6305;48.398;11.762;2024-01-11T07:12:05;123.50;;;54.37;;
12480;SDS011;6305;48.398;11.762;2024-01-11T07:14:33;118.97;;;50.07;;
12480;SDS011;6305;48.398;11.762;2024-01-11T07:17:01;124.47;;;53.00;;
12480;SDS011;6305;48.398;11.762;2024-01-11T07:19:29;115.23;;;51.17;;
12480;SDS011;6305;48.398;11.762;2024-01-11T07:21:56;113.33;;;50.27;;
12480;SDS011;6305;48.398;11.762;2024-01-11T07:24:23;117.93;;;47.70;;
12480;SDS011;6305;48.398;11.762;2024-01-11T07:26:50;116.30;;;47.90;;
12480;SDS011;6305;48.398;11.762;2024-01-11T07:29:17;122.73;;;48.23;;
12480;SDS011;6305;48.398;11.762;2024-01-11T07:31:44;111.43;;;47.50;;
12480;SDS011;6305;48.398;11.762;2024-01-11T07:34:12;104.10;;;47.13;;
12480;SDS011;6305;48.398;11.762;2024-01-11T07:36:39;103.23;;;46.93;;
12480;SDS011;6305;48.398;11.762;2024-01-11T07:39:06;111.33;;;48.47;;
12480;SDS011;6305;48.398;11.762;2024-01-11T07:41:33;113.67;;;47.53;;
12480;SDS011;6305;48.398;11.762;2024-01-11T07:44:00;100.90;;;46.20;;
12480;SDS011;6305;48.398;11.762;2024-01-11T07:46:27;112.50;;;48.10;;
12480;SDS011;6305;48.398;11.762;2024-01-11T07:48:54;106.97;;;47.33;;
12480;SDS011;6305;48.398;11.762;2024-01-11T07:51:22;100.40;;;45.83;;
12480;SDS011;6305;48.398;11.762;2024-01-11T07:53:49;97.17;;;45.03;;
12480;SDS011;6305;48.398;11.762;2024-01-11T07:56:16;96.77;;;45.97;;
12480;SDS011;6305;48.398;11.762;2024-01-11T07:58:43;100.37;;;46.33;;
12480;SDS011;6305;48.398;11.762;2024-01-11T08:01:10;93.33;;;45.87;;
12480;SDS011;6305;48.398;11.762;2024-01-11T08:03:37;89.37;;;44.53;;
12480;SDS011;6305;48.398;11.762;2024-01-11T08:06:07;90.17;;;43.77;;
12480;SDS011;6305;48.398;11.762;2024-01-11T08:08:36;78.57;;;41.20;;
12480;SDS011;6305;48.398;11.762;2024-01-11T08:11:04;79.93;;;41.37;;
12480;SDS011;6305;48.398;11.762;2024-01-11T08:13:31;79.77;;;41.13;;
12480;SDS011;6305;48.398;11.762;2024-01-11T08:16:00;81.10;;;40.70;;
12480;SDS011;6305;48.398;11.762;2024-01-11T08:18:28;90.00;;;42.43;;
12480;SDS011;6305;48.398;11.762;2024-01-11T08:20:55;90.77;;;45.53;;
12480;SDS011;6305;48.398;11.762;2024-01-11T08:23:22;99.20;;;46.03;;
12480;SDS011;6305;48.398;11.762;2024-01-11T08:25:51;91.07;;;45.47;;
12480;SDS011;6305;48.398;11.762;2024-01-11T08:28:18;98.43;;;45.63;;
12480;SDS011;6305;48.398;11.762;2024-01-11T08:30:45;95.93;;;44.60;;
12480;SDS011;6305;48.398;11.762;2024-01-11T08:33:12;92.80;;;44.47;;
12480;SDS011;6305;48.398;11.762;2024-01-11T08:35:39;89.97;;;42.60;;
12480;SDS011;6305;48.398;11.762;2024-01-11T08:38:06;88.17;;;43.77;;
12480;SDS011;6305;48.398;11.762;2024-01-11T08:40:33;89.57;;;42.87;;
12480;SDS011;6305;48.398;11.762;2024-01-11T08:43:02;90.30;;;42.63;;
12480;SDS011;6305;48.398;11.762;2024-01-11T08:45:29;89.60;;;42.53;;
12480;SDS011;6305;48.398;11.762;2024-01-11T08:47:56;92.50;;;44.00;;
12480;SDS011;6305;48.398;11.762;2024-01-11T08:50:23;84.30;;;40.90;;
12480;SDS011;6305;48.398;11.762;2024-01-11T08:52:50;93.63;;;43.00;;
12480;SDS011;6305;48.398;11.762;2024-01-11T08:55:17;89.73;;;42.10;;
12480;SDS011;6305;48.398;11.762;2024-01-11T08:57:44;89.20;;;41.30;;
12480;SDS011;6305;48.398;11.762;2024-01-11T09:00:13;82.13;;;38.93;;
12480;SDS011;6305;48.398;11.762;2024-01-11T09:02:42;86.17;;;42.23;;
12480;SDS011;6305;48.398;11.762;2024-01-11T09:05:09;90.13;;;42.40;;
12480;SDS011;6305;48.398;11.762;2024-01-11T09:07:36;75.33;;;37.53;;
12480;SDS011;6305;48.398;11.762;2024-01-11T09:10:03;71.70;;;35.93;;
12480;SDS011;6305;48.398;11.762;2024-01-11T09:12:31;71.87;;;33.97;;
12480;SDS011;6305;48.398;11.762;2024-01-11T09:14:59;69.33;;;33.83;;
12480;SDS011;6305;48.398;11.762;2024-01-11T09:17:27;64.60;;;31.27;;
12480;SDS011;6305;48.398;11.762;2024-01-11T09:19:54;58.83;;;29.60;;
12480;SDS011;6305;48.398;11.762;2024-01-11T09:22:21;62.63;;;29.40;;
12480;SDS011;6305;48.398;11.762;2024-01-11T09:24:48;57.87;;;28.27;;
12480;SDS011;6305;48.398;11.762;2024-01-11T09:27:15;61.47;;;28.93;;
12480;SDS011;6305;48.398;11.762;2024-01-11T09:29:43;60.07;;;30.17;;
12480;SDS011;6305;48.398;11.762;2024-01-11T09:32:10;66.87;;;31.50;;
12480;SDS011;6305;48.398;11.762;2024-01-11T09:34:39;66.17;;;33.43;;
12480;SDS011;6305;48.398;11.762;2024-01-11T09:37:06;70.03;;;34.70;;
12480;SDS011;6305;48.398;11.762;2024-01-11T09:39:33;66.77;;;35.20;;
12480;SDS011;6305;48.398;11.762;2024-01-11T09:42:05;67.20;;;32.57;;
12480;SDS011;6305;48.398;11.762;2024-01-11T09:44:34;70.67;;;33.73;;
12480;SDS011;6305;48.398;11.762;2024-01-11T09:47:04;67.00;;;32.00;;
12480;SDS011;6305;48.398;11.762;2024-01-11T09:49:33;67.37;;;34.10;;
12480;SDS011;6305;48.398;11.762;2024-01-11T09:52:05;66.27;;;33.63;;
12480;SDS011;6305;48.398;11.762;2024-01-11T09:54:33;68.57;;;33.97;;
12480;SDS011;6305;48.398;11.762;2024-01-11T09:57:01;74.30;;;35.30;;
12480;SDS011;6305;48.398;11.762;2024-01-11T09:59:30;71.17;;;34.90;;
12480;SDS011;6305;48.398;11.762;2024-01-11T10:01:58;70.20;;;35.40;;
12480;SDS011;6305;48.398;11.762;2024-01-11T10:04:27;165.93;;;68.47;;
12480;SDS011;6305;48.398;11.762;2024-01-11T10:06:55;100.43;;;46.83;;
12480;SDS011;6305;48.398;11.762;2024-01-11T10:09:24;82.43;;;38.17;;
12480;SDS011;6305;48.398;11.762;2024-01-11T10:11:51;81.80;;;38.20;;
12480;SDS011;6305;48.398;11.762;2024-01-11T10:14:20;68.93;;;34.80;;
12480;SDS011;6305;48.398;11.762;2024-01-11T10:16:47;72.07;;;36.00;;
12480;SDS011;6305;48.398;11.762;2024-01-11T10:19:14;81.07;;;40.30;;
12480;SDS011;6305;48.398;11.762;2024-01-11T10:21:42;75.23;;;37.27;;
12480;SDS011;6305;48.398;11.762;2024-01-11T10:24:09;70.20;;;34.23;;
12480;SDS011;6305;48.398;11.762;2024-01-11T10:26:37;76.37;;;37.00;;
12480;SDS011;6305;48.398;11.762;2024-01-11T10:29:04;69.53;;;34.63;;
12480;SDS011;6305;48.398;11.762;2024-01-11T10:31:36;70.27;;;37.03;;
12480;SDS011;6305;48.398;11.762;2024-01-11T10:34:03;66.87;;;35.33;;
12480;SDS011;6305;48.398;11.762;2024-01-11T10:36:31;70.57;;;35.83;;
12480;SDS011;6305;48.398;11.762;2024-01-11T10:38:59;68.20;;;34.10;;
12480;SDS011;6305;48.398;11.762;2024-01-11T10:41:30;72.23;;;35.50;;
12480;SDS011;6305;48.398;11.762;2024-01-11T10:44:04;72.30;;;34.60;;
12480;SDS011;6305;48.398;11.762;2024-01-11T10:46:35;70.67;;;36.40;;
12480;SDS011;6305;48.398;11.762;2024-01-11T10:49:02;71.93;;;34.07;;
12480;SDS011;6305;48.398;11.762;2024-01-11T10:51:33;65.47;;;32.63;;
12480;SDS011;6305;48.398;11.762;2024-01-11T10:54:00;71.87;;;35.70;;
12480;SDS011;6305;48.398;11.762;2024-01-11T10:56:27;70.13;;;34.87;;
12480;SDS011;6305;48.398;11.762;2024-01-11T10:58:56;68.87;;;34.03;;
12480;SDS011;6305;48.398;11.762;2024-01-11T11:01:25;67.27;;;33.40;;
12480;SDS011;6305;48.398;11.762;2024-01-11T11:03:52;65.20;;;32.13;;
12480;SDS011;6305;48.398;11.762;2024-01-11T11:06:22;74.97;;;36.57;;
12480;SDS011;6305;48.398;11.762;2024-01-11T11:08:49;66.67;;;32.33;;
12480;SDS011;6305;48.398;11.762;2024-01-11T11:11:18;70.93;;;34.47;;
12480;SDS011;6305;48.398;11.762;2024-01-11T11:13:47;69.10;;;34.07;;
12480;SDS011;6305;48.398;11.762;2024-01-11T11:16:15;67.00;;;33.10;;
12480;SDS011;6305;48.398;11.762;2024-01-11T11:18:43;64.90;;;33.60;;
12480;SDS011;6305;48.398;11.762;2024-01-11T11:21:10;66.70;;;33.00;;
12480;SDS011;6305;48.398;11.762;2024-01-11T11:23:37;70.57;;;34.40;;
12480;SDS011;6305;48.398;11.762;2024-01-11T11:26:05;69.93;;;33.87;;
12480;SDS011;6305;48.398;11.762;2024-01-11T11:28:34;73.13;;;34.40;;
12480;SDS011;6305;48.398;11.762;2024-01-11T11:31:02;71.40;;;34.10;;
12480;SDS011;6305;48.398;11.762;2024-01-11T11:33:29;66.90;;;32.90;;
12480;SDS011;6305;48.398;11.762;2024-01-11T11:35:58;64.83;;;32.37;;
12480;SDS011;6305;48.398;11.762;2024-01-11T11:38:26;68.93;;;32.67;;
12480;SDS011;6305;48.398;11.762;2024-01-11T11:40:55;76.83;;;37.77;;
12480;SDS011;6305;48.398;11.762;2024-01-11T11:43:26;82.77;;;38.90;;
12480;SDS011;6305;48.398;11.762;2024-01-11T11:45:54;65.17;;;33.97;;
12480;SDS011;6305;48.398;11.762;2024-01-11T11:51:19;69.23;;;32.77;;
12480;SDS011;6305;48.398;11.762;2024-01-11T11:53:46;73.23;;;34.63;;
12480;SDS011;6305;48.398;11.762;2024-01-11T11:56:16;69.13;;;33.17;;
12480;SDS011;6305;48.398;11.762;2024-01-11T11:58:44;86.90;;;38.97;;
12480;SDS011;6305;48.398;11.762;2024-01-11T12:01:14;72.30;;;34.50;;
12480;SDS011;6305;48.398;11.762;2024-01-11T12:03:43;65.03;;;32.13;;
12480;SDS011;6305;48.398;11.762;2024-01-11T12:06:14;71.67;;;34.07;;
12480;SDS011;6305;48.398;11.762;2024-01-11T12:08:44;68.00;;;33.57;;
12480;SDS011;6305;48.398;11.762;2024-01-11T12:11:16;67.47;;;33.60;;
12480;SDS011;6305;48.398;11.762;2024-01-11T12:13:44;73.93;;;35.23;;
12480;SDS011;6305;48.398;11.762;2024-01-11T12:16:12;66.83;;;33.63;;
12480;SDS011;6305;48.398;11.762;2024-01-11T12:18:39;73.10;;;34.20;;
12480;SDS011;6305;48.398;11.762;2024-01-11T12:21:06;72.23;;;33.97;;
12480;SDS011;6305;48.398;11.762;2024-01-11T12:23:34;65.00;;;33.50;;
12480;SDS011;6305;48.398;11.762;2024-01-11T12:26:04;74.77;;;35.63;;
12480;SDS011;6305;48.398;11.762;2024-01-11T12:28:38;70.33;;;33.67;;
12480;SDS011;6305;48.398;11.762;2024-01-11T12:31:05;71.53;;;35.67;;
12480;SDS011;6305;48.398;11.762;2024-01-11T12:33:32;65.20;;;33.40;;
12480;SDS011;6305;48.398;11.762;2024-01-11T12:36:00;71.93;;;33.87;;
12480;SDS011;6305;48.398;11.762;2024-01-11T12:38:27;67.67;;;33.37;;
12480;SDS011;6305;48.398;11.762;2024-01-11T12:40:54;70.23;;;33.77;;
12480;SDS011;6305;48.398;11.762;2024-01-11T12:43:23;70.77;;;34.93;;
12480;SDS011;6305;48.398;11.762;2024-01-11T12:45:50;82.00;;;36.60;;
12480;SDS011;6305;48.398;11.762;2024-01-11T12:48:19;70.50;;;34.57;;
12480;SDS011;6305;48.398;11.762;2024-01-11T12:50:46;76.47;;;36.80;;
12480;SDS011;6305;48.398;11.762;2024-01-11T12:53:14;78.50;;;37.57;;
12480;SDS011;6305;48.398;11.762;2024-01-11T12:55:44;84.57;;;38.23;;
12480;SDS011;6305;48.398;11.762;2024-01-11T12:58:11;77.13;;;38.17;;
12480;SDS011;6305;48.398;11.762;2024-01-11T13:00:40;79.13;;;37.63;;
12480;SDS011;6305;48.398;11.762;2024-01-11T13:03:07;79.70;;;37.50;;
12480;SDS011;6305;48.398;11.762;2024-01-11T13:05:36;76.67;;;38.43;;
12480;SDS011;6305;48.398;11.762;2024-01-11T13:08:07;76.07;;;38.13;;
12480;SDS011;6305;48.398;11.762;2024-01-11T13:10:34;82.40;;;38.20;;
12480;SDS011;6305;48.398;11.762;2024-01-11T13:13:02;83.93;;;38.57;;
12480;SDS011;6305;48.398;11.762;2024-01-11T13:15:30;77.67;;;37.83;;
12480;SDS011;6305;48.398;11.762;2024-01-11T13:17:59;83.57;;;39.03;;
12480;SDS011;6305;48.398;11.762;2024-01-11T13:20:26;78.47;;;37.17;;
12480;SDS011;6305;48.398;11.762;2024-01-11T13:25:40;74.43;;;34.87;;
12480;SDS011;6305;48.398;11.762;2024-01-11T13:28:07;81.80;;;37.40;;
12480;SDS011;6305;48.398;11.762;2024-01-11T13:30:35;79.00;;;36.93;;
12480;SDS011;6305;48.398;11.762;2024-01-11T13:33:03;80.10;;;35.37;;
12480;SDS011;6305;48.398;11.762;2024-01-11T13:35:30;83.07;;;37.37;;
12480;SDS011;6305;48.398;11.762;2024-01-11T13:37:57;81.17;;;36.70;;
12480;SDS011;6305;48.398;11.762;2024-01-11T13:40:24;75.80;;;37.27;;
12480;SDS011;6305;48.398;11.762;2024-01-11T13:42:53;84.77;;;38.30;;
12480;SDS011;6305;48.398;11.762;2024-01-11T13:45:21;78.83;;;37.67;;
12480;SDS011;6305;48.398;11.762;2024-01-11T13:47:48;79.53;;;37.77;;
12480;SDS011;6305;48.398;11.762;2024-01-11T13:50:16;84.87;;;37.00;;
12480;SDS011;6305;48.398;11.762;2024-01-11T13:52:43;83.33;;;39.70;;
12480;SDS011;6305;48.398;11.762;2024-01-11T13:55:11;79.03;;;38.67;;
12480;SDS011;6305;48.398;11.762;2024-01-11T13:57:39;80.67;;;37.43;;
12480;SDS011;6305;48.398;11.762;2024-01-11T14:00:07;89.33;;;39.97;;
12480;SDS011;6305;48.398;11.762;2024-01-11T14:02:36;83.40;;;38.70;;
12480;SDS011;6305;48.398;11.762;2024-01-11T14:05:05;88.57;;;40.53;;
12480;SDS011;6305;48.398;11.762;2024-01-11T14:07:36;93.70;;;42.70;;
12480;SDS011;6305;48.398;11.762;2024-01-11T14:10:04;94.57;;;41.70;;
12480;SDS011;6305;48.398;11.762;2024-01-11T14:12:31;97.73;;;42.00;;
12480;SDS011;6305;48.398;11.762;2024-01-11T14:14:58;97.40;;;43.40;;
12480;SDS011;6305;48.398;11.762;2024-01-11T14:17:26;102.10;;;44.77;;
12480;SDS011;6305;48.398;11.762;2024-01-11T14:19:53;98.10;;;42.13;;
12480;SDS011;6305;48.398;11.762;2024-01-11T14:22:20;101.43;;;43.27;;